Aeroporto :
LOGIN :

Iscrizione | Disclaimer

   EN    FR    IT 

 










Sommario :    VFR   VFR Marginale   IFR   IFR Intensivo   IFR Molto Intensivo
Visibilità : 
Base nubi : 
>= 8 km
>= 3000ft
5 / 8 km
1000 / 3000 ft
1500m / 5 km
500 / 1000 ft
800 / 1500m
200 / 500 ft
< 800m
< 200 ft
Simboli :   Temporali  Nebbia  Neve Forte  Precipitazioni Forti  Vento > 20 kt
SIGMETs :   Varie  Temporali  Ghiacco  Turbolenza  Onda orograficha  Ceneri Vulcaniche






- Altitudine del aeroporto : 665 ft
- Codice IATA : NOC


EIKN - Connaught / Knock- Ireland West

ULTIMO METAR :
  • 191500Z 16008KT 130V190 9999 FEW015 08/06 Q1004 NOSIG

METARs OBSOLETI :
  • 191430Z 17008KT 130V210 9999 FEW015 08/06 Q1004 NOSIG
  • 191400Z 17008KT 140V220 9999 BKN015 08/06 Q1004 NOSIG
  • 191330Z 19007KT 150V230 9999 FEW013 08/06 Q1004 NOSIG
  • 191300Z 21007KT 170V240 9999 FEW013 08/05 Q1004 NOSIG
  • 191230Z 20006KT 150V230 9999 FEW012 08/05 Q1004 NOSIG

TAF TAF EIKN
Valido dal 19 a 12 ore il 20 a 12 ore UTC


191100Z 1912/2012 16013KT 9999 SCT010
BECMG 2000/2002 13012KT
TEMPO 2006/2012 1200 -RA BR BKN003



MetMap, La meteo Aeronautica in un colpo d'occhio ! - Copyright ORBIFLY Dicembre 2007 - Disclaimer

ORBIFLY MET'MAP TEAM :

Programmazione e sviluppo : Alexandra Zaïnal
Concezione e sviluppo : Baudouin d'Aumeries
Co-Programmazione e sviluppo : Marc-Olivier Méhu
Supporto tecnico e logistico : Manuel Goepfert
Aiuto per la traduzione : Arnaldo La Scala

Contatto : metmap@orbifly.com




FONTI E CREDITI :

   NOAA